sensor_id;sensor_type;location;lat;lon;timestamp;temperature;humidity
28677;DHT22;15858;48.338;11.078;2023-02-23T00:02:23;6.80;99.90
28677;DHT22;15858;48.338;11.078;2023-02-23T00:04:50;6.70;99.90
28677;DHT22;15858;48.338;11.078;2023-02-23T00:07:17;6.70;99.90
28677;DHT22;15858;48.338;11.078;2023-02-23T00:09:43;6.60;99.90
28677;DHT22;15858;48.338;11.078;2023-02-23T00:12:10;6.60;99.90
28677;DHT22;15858;48.338;11.078;2023-02-23T00:14:37;6.60;99.90
28677;DHT22;15858;48.338;11.078;2023-02-23T00:17:05;6.60;99.90
28677;DHT22;15858;48.338;11.078;2023-02-23T00:19:31;6.60;99.90
28677;DHT22;15858;48.338;11.078;2023-02-23T00:21:58;6.60;99.90
28677;DHT22;15858;48.338;11.078;2023-02-23T00:24:24;6.50;99.90
28677;DHT22;15858;48.338;11.078;2023-02-23T00:26:51;6.50;99.90
28677;DHT22;15858;48.338;11.078;2023-02-23T00:29:20;6.50;99.90
28677;DHT22;15858;48.338;11.078;2023-02-23T00:31:48;6.50;99.90
28677;DHT22;15858;48.338;11.078;2023-02-23T00:34:17;6.50;99.90
28677;DHT22;15858;48.338;11.078;2023-02-23T00:36:44;6.60;99.90
28677;DHT22;15858;48.338;11.078;2023-02-23T00:39:11;6.60;99.90
28677;DHT22;15858;48.338;11.078;2023-02-23T00:41:37;6.60;99.90
28677;DHT22;15858;48.338;11.078;2023-02-23T00:44:04;6.60;99.90
28677;DHT22;15858;48.338;11.078;2023-02-23T00:46:30;6.60;99.90
28677;DHT22;15858;48.338;11.078;2023-02-23T00:48:58;6.60;99.90
28677;DHT22;15858;48.338;11.078;2023-02-23T00:51:26;6.60;99.90
28677;DHT22;15858;48.338;11.078;2023-02-23T00:53:53;6.60;99.90
28677;DHT22;15858;48.338;11.078;2023-02-23T00:56:20;6.70;99.90
28677;DHT22;15858;48.338;11.078;2023-02-23T00:58:47;6.60;99.90
28677;DHT22;15858;48.338;11.078;2023-02-23T01:01:14;6.70;99.90
28677;DHT22;15858;48.338;11.078;2023-02-23T01:03:42;6.70;99.90
28677;DHT22;15858;48.338;11.078;2023-02-23T01:06:14;6.60;99.90
28677;DHT22;15858;48.338;11.078;2023-02-23T01:08:43;6.70;99.90
28677;DHT22;15858;48.338;11.078;2023-02-23T01:11:12;6.70;99.90
28677;DHT22;15858;48.338;11.078;2023-02-23T01:13:40;6.70;99.90
28677;DHT22;15858;48.338;11.078;2023-02-23T01:16:13;6.70;99.90
28677;DHT22;15858;48.338;11.078;2023-02-23T01:18:41;6.70;99.90
28677;DHT22;15858;48.338;11.078;2023-02-23T01:21:21;6.70;99.90
28677;DHT22;15858;48.338;11.078;2023-02-23T01:23:48;6.70;99.90
28677;DHT22;15858;48.338;11.078;2023-02-23T01:26:20;6.80;99.90
28677;DHT22;15858;48.338;11.078;2023-02-23T01:28:55;6.80;99.90
28677;DHT22;15858;48.338;11.078;2023-02-23T01:31:23;6.80;99.90
28677;DHT22;15858;48.338;11.078;2023-02-23T01:33:55;6.90;99.90
28677;DHT22;15858;48.338;11.078;2023-02-23T01:36:22;7.00;99.90
28677;DHT22;15858;48.338;11.078;2023-02-23T01:38:48;7.00;99.90
28677;DHT22;15858;48.338;11.078;2023-02-23T01:41:15;7.00;99.90
28677;DHT22;15858;48.338;11.078;2023-02-23T01:46:23;7.10;99.90
28677;DHT22;15858;48.338;11.078;2023-02-23T01:48:50;7.10;99.90
28677;DHT22;15858;48.338;11.078;2023-02-23T01:51:19;7.00;99.90
28677;DHT22;15858;48.338;11.078;2023-02-23T01:54:14;7.00;99.90
28677;DHT22;15858;48.338;11.078;2023-02-23T01:56:44;7.00;99.90
28677;DHT22;15858;48.338;11.078;2023-02-23T01:59:12;7.00;99.90
28677;DHT22;15858;48.338;11.078;2023-02-23T02:01:40;7.00;99.90
28677;DHT22;15858;48.338;11.078;2023-02-23T02:04:09;6.90;99.90
28677;DHT22;15858;48.338;11.078;2023-02-23T02:06:37;7.00;99.90
28677;DHT22;15858;48.338;11.078;2023-02-23T02:09:10;7.00;99.90
28677;DHT22;15858;48.338;11.078;2023-02-23T02:11:38;7.00;99.90
28677;DHT22;15858;48.338;11.078;2023-02-23T02:14:26;6.90;99.90
28677;DHT22;15858;48.338;11.078;2023-02-23T02:22:52;6.90;99.90
28677;DHT22;15858;48.338;11.078;2023-02-23T02:39:44;6.70;99.90
28677;DHT22;15858;48.338;11.078;2023-02-23T02:42:33;6.80;99.90
28677;DHT22;15858;48.338;11.078;2023-02-23T02:45:09;6.80;99.90
28677;DHT22;15858;48.338;11.078;2023-02-23T02:48:13;6.80;99.90
28677;DHT22;15858;48.338;11.078;2023-02-23T02:53:14;6.80;99.90
28677;DHT22;15858;48.338;11.078;2023-02-23T02:55:43;6.80;99.90
28677;DHT22;15858;48.338;11.078;2023-02-23T02:58:11;6.80;99.90
28677;DHT22;15858;48.338;11.078;2023-02-23T03:00:44;6.70;99.90
28677;DHT22;15858;48.338;11.078;2023-02-23T03:03:41;6.70;99.90
28677;DHT22;15858;48.338;11.078;2023-02-23T03:06:08;6.70;99.90
28677;DHT22;15858;48.338;11.078;2023-02-23T03:08:51;6.70;99.90
28677;DHT22;15858;48.338;11.078;2023-02-23T03:11:23;6.70;99.90
28677;DHT22;15858;48.338;11.078;2023-02-23T03:14:13;6.70;99.90
28677;DHT22;15858;48.338;11.078;2023-02-23T03:19:25;6.60;99.90
28677;DHT22;15858;48.338;11.078;2023-02-23T03:22:01;6.60;99.90
28677;DHT22;15858;48.338;11.078;2023-02-23T03:24:46;6.60;99.90
28677;DHT22;15858;48.338;11.078;2023-02-23T03:27:24;6.60;99.90
28677;DHT22;15858;48.338;11.078;2023-02-23T03:30:14;6.60;99.90
28677;DHT22;15858;48.338;11.078;2023-02-23T03:32:47;6.60;99.90
28677;DHT22;15858;48.338;11.078;2023-02-23T03:35:27;6.60;99.90
28677;DHT22;15858;48.338;11.078;2023-02-23T03:38:35;6.60;99.90
28677;DHT22;15858;48.338;11.078;2023-02-23T03:41:06;6.60;99.90
28677;DHT22;15858;48.338;11.078;2023-02-23T03:43:38;6.60;99.90
28677;DHT22;15858;48.338;11.078;2023-02-23T03:46:08;6.60;99.90
28677;DHT22;15858;48.338;11.078;2023-02-23T03:48:38;6.60;99.90
28677;DHT22;15858;48.338;11.078;2023-02-23T03:51:07;6.70;99.90
28677;DHT22;15858;48.338;11.078;2023-02-23T03:54:01;6.70;99.90
28677;DHT22;15858;48.338;11.078;2023-02-23T03:56:30;6.70;99.90
28677;DHT22;15858;48.338;11.078;2023-02-23T03:59:01;6.70;99.90
28677;DHT22;15858;48.338;11.078;2023-02-23T04:01:30;6.80;99.90
28677;DHT22;15858;48.338;11.078;2023-02-23T04:03:58;6.80;99.90
28677;DHT22;15858;48.338;11.078;2023-02-23T04:06:28;6.90;99.90
28677;DHT22;15858;48.338;11.078;2023-02-23T04:08:59;6.90;99.90
28677;DHT22;15858;48.338;11.078;2023-02-23T04:11:45;6.90;99.90
28677;DHT22;15858;48.338;11.078;2023-02-23T04:14:22;7.00;99.90
28677;DHT22;15858;48.338;11.078;2023-02-23T04:16:51;7.00;99.90
28677;DHT22;15858;48.338;11.078;2023-02-23T04:19:18;7.00;99.90
28677;DHT22;15858;48.338;11.078;2023-02-23T04:21:44;7.00;99.90
28677;DHT22;15858;48.338;11.078;2023-02-23T04:24:11;7.10;99.90
28677;DHT22;15858;48.338;11.078;2023-02-23T04:26:38;7.10;99.90
28677;DHT22;15858;48.338;11.078;2023-02-23T04:29:04;7.10;99.90
28677;DHT22;15858;48.338;11.078;2023-02-23T04:31:31;7.10;99.90
28677;DHT22;15858;48.338;11.078;2023-02-23T04:33:57;7.20;99.90
28677;DHT22;15858;48.338;11.078;2023-02-23T04:36:24;7.10;99.90
28677;DHT22;15858;48.338;11.078;2023-02-23T04:38:50;7.20;99.90
28677;DHT22;15858;48.338;11.078;2023-02-23T04:41:17;7.20;99.90
28677;DHT22;15858;48.338;11.078;2023-02-23T04:43:44;7.20;99.90
28677;DHT22;15858;48.338;11.078;2023-02-23T04:46:11;7.20;99.90
28677;DHT22;15858;48.338;11.078;2023-02-23T04:48:37;7.20;99.90
28677;DHT22;15858;48.338;11.078;2023-02-23T04:51:04;7.30;99.90
28677;DHT22;15858;48.338;11.078;2023-02-23T04:53:31;7.20;99.90
28677;DHT22;15858;48.338;11.078;2023-02-23T04:55:58;7.30;99.90
28677;DHT22;15858;48.338;11.078;2023-02-23T04:58:24;7.30;99.90
28677;DHT22;15858;48.338;11.078;2023-02-23T05:00:51;7.30;99.90
28677;DHT22;15858;48.338;11.078;2023-02-23T05:03:17;7.30;99.90
28677;DHT22;15858;48.338;11.078;2023-02-23T05:05:44;7.30;99.90
28677;DHT22;15858;48.338;11.078;2023-02-23T05:08:11;7.20;99.90
28677;DHT22;15858;48.338;11.078;2023-02-23T05:10:37;7.20;99.90
28677;DHT22;15858;48.338;11.078;2023-02-23T05:13:06;7.30;99.90
28677;DHT22;15858;48.338;11.078;2023-02-23T05:15:32;7.20;99.90
28677;DHT22;15858;48.338;11.078;2023-02-23T05:17:59;7.20;99.90
28677;DHT22;15858;48.338;11.078;2023-02-23T05:20:25;7.20;99.90
28677;DHT22;15858;48.338;11.078;2023-02-23T05:22:52;7.10;99.90
28677;DHT22;15858;48.338;11.078;2023-02-23T05:25:19;7.20;99.90
28677;DHT22;15858;48.338;11.078;2023-02-23T05:27:45;7.10;99.90
28677;DHT22;15858;48.338;11.078;2023-02-23T05:30:12;7.10;99.90
28677;DHT22;15858;48.338;11.078;2023-02-23T05:32:39;7.10;99.90
28677;DHT22;15858;48.338;11.078;2023-02-23T05:35:05;7.10;99.90
28677;DHT22;15858;48.338;11.078;2023-02-23T05:37:32;7.10;99.90
28677;DHT22;15858;48.338;11.078;2023-02-23T05:39:59;7.10;99.90
28677;DHT22;15858;48.338;11.078;2023-02-23T05:42:25;7.20;99.90
28677;DHT22;15858;48.338;11.078;2023-02-23T05:44:52;7.20;99.90
28677;DHT22;15858;48.338;11.078;2023-02-23T05:47:18;7.20;99.90
28677;DHT22;15858;48.338;11.078;2023-02-23T05:49:45;7.20;99.90
28677;DHT22;15858;48.338;11.078;2023-02-23T05:52:12;7.20;99.90
28677;DHT22;15858;48.338;11.078;2023-02-23T05:54:38;7.20;99.90
28677;DHT22;15858;48.338;11.078;2023-02-23T05:57:05;7.20;99.90
28677;DHT22;15858;48.338;11.078;2023-02-23T05:59:31;7.30;99.90
28677;DHT22;15858;48.338;11.078;2023-02-23T06:01:58;7.20;99.90
28677;DHT22;15858;48.338;11.078;2023-02-23T06:04:24;7.20;99.90
28677;DHT22;15858;48.338;11.078;2023-02-23T06:06:51;7.30;99.90
28677;DHT22;15858;48.338;11.078;2023-02-23T06:09:18;7.30;99.90
28677;DHT22;15858;48.338;11.078;2023-02-23T06:11:44;7.30;99.90
28677;DHT22;15858;48.338;11.078;2023-02-23T06:14:11;7.30;99.90
28677;DHT22;15858;48.338;11.078;2023-02-23T06:16:37;7.30;99.90
28677;DHT22;15858;48.338;11.078;2023-02-23T06:19:04;7.30;99.90
28677;DHT22;15858;48.338;11.078;2023-02-23T06:21:31;7.30;99.90
28677;DHT22;15858;48.338;11.078;2023-02-23T06:23:58;7.30;99.90
28677;DHT22;15858;48.338;11.078;2023-02-23T06:26:25;7.20;99.90
28677;DHT22;15858;48.338;11.078;2023-02-23T06:28:52;7.30;99.90
28677;DHT22;15858;48.338;11.078;2023-02-23T06:31:18;7.20;99.90
28677;DHT22;15858;48.338;11.078;2023-02-23T06:33:45;7.30;99.90
28677;DHT22;15858;48.338;11.078;2023-02-23T06:36:12;7.20;99.90
28677;DHT22;15858;48.338;11.078;2023-02-23T06:38:39;7.20;99.90
28677;DHT22;15858;48.338;11.078;2023-02-23T06:41:07;7.30;99.90
28677;DHT22;15858;48.338;11.078;2023-02-23T06:43:34;7.30;99.90
28677;DHT22;15858;48.338;11.078;2023-02-23T06:46:01;7.30;99.90
28677;DHT22;15858;48.338;11.078;2023-02-23T06:48:27;7.30;99.90
28677;DHT22;15858;48.338;11.078;2023-02-23T06:50:57;7.30;99.90
28677;DHT22;15858;48.338;11.078;2023-02-23T06:53:24;7.40;99.90
28677;DHT22;15858;48.338;11.078;2023-02-23T06:55:50;7.40;99.90
28677;DHT22;15858;48.338;11.078;2023-02-23T06:58:17;7.50;99.90
28677;DHT22;15858;48.338;11.078;2023-02-23T07:00:43;7.50;99.90
28677;DHT22;15858;48.338;11.078;2023-02-23T07:03:10;7.60;99.90
28677;DHT22;15858;48.338;11.078;2023-02-23T07:05:37;7.60;99.90
28677;DHT22;15858;48.338;11.078;2023-02-23T07:08:03;7.70;99.90
28677;DHT22;15858;48.338;11.078;2023-02-23T07:10:30;7.70;99.90
28677;DHT22;15858;48.338;11.078;2023-02-23T07:12:57;7.80;99.90
28677;DHT22;15858;48.338;11.078;2023-02-23T07:15:23;7.80;99.90
28677;DHT22;15858;48.338;11.078;2023-02-23T07:17:50;7.90;99.90
28677;DHT22;15858;48.338;11.078;2023-02-23T07:20:17;7.90;99.90
28677;DHT22;15858;48.338;11.078;2023-02-23T07:22:44;7.90;99.90
28677;DHT22;15858;48.338;11.078;2023-02-23T07:25:11;8.00;99.90
28677;DHT22;15858;48.338;11.078;2023-02-23T07:27:37;8.00;99.90
28677;DHT22;15858;48.338;11.078;2023-02-23T07:30:04;8.10;99.90
28677;DHT22;15858;48.338;11.078;2023-02-23T07:32:31;8.10;99.90
28677;DHT22;15858;48.338;11.078;2023-02-23T07:34:58;8.20;99.90
28677;DHT22;15858;48.338;11.078;2023-02-23T07:37:24;8.10;99.90
28677;DHT22;15858;48.338;11.078;2023-02-23T07:39:51;8.20;99.90
28677;DHT22;15858;48.338;11.078;2023-02-23T07:42:17;8.20;99.90
28677;DHT22;15858;48.338;11.078;2023-02-23T07:44:44;8.20;99.90
28677;DHT22;15858;48.338;11.078;2023-02-23T07:47:10;8.20;99.90
28677;DHT22;15858;48.338;11.078;2023-02-23T07:49:37;8.20;99.90
28677;DHT22;15858;48.338;11.078;2023-02-23T07:52:04;8.20;99.90
28677;DHT22;15858;48.338;11.078;2023-02-23T07:54:30;8.20;99.90
28677;DHT22;15858;48.338;11.078;2023-02-23T07:56:57;8.30;99.90
28677;DHT22;15858;48.338;11.078;2023-02-23T07:59:23;8.30;99.90
28677;DHT22;15858;48.338;11.078;2023-02-23T08:01:50;8.30;99.90
28677;DHT22;15858;48.338;11.078;2023-02-23T08:04:17;8.30;99.90
28677;DHT22;15858;48.338;11.078;2023-02-23T08:06:44;8.30;99.90
28677;DHT22;15858;48.338;11.078;2023-02-23T08:09:11;8.40;99.90
28677;DHT22;15858;48.338;11.078;2023-02-23T08:11:37;8.40;99.90
28677;DHT22;15858;48.338;11.078;2023-02-23T08:14:04;8.40;99.90
28677;DHT22;15858;48.338;11.078;2023-02-23T08:16:31;8.50;99.90
28677;DHT22;15858;48.338;11.078;2023-02-23T08:18:59;8.50;99.90
28677;DHT22;15858;48.338;11.078;2023-02-23T08:21:27;8.50;99.90
28677;DHT22;15858;48.338;11.078;2023-02-23T08:23:54;8.50;99.90
28677;DHT22;15858;48.338;11.078;2023-02-23T08:26:21;8.60;99.90
28677;DHT22;15858;48.338;11.078;2023-02-23T08:28:47;8.60;99.90
28677;DHT22;15858;48.338;11.078;2023-02-23T08:31:14;8.60;99.90
28677;DHT22;15858;48.338;11.078;2023-02-23T08:33:41;8.60;99.90
28677;DHT22;15858;48.338;11.078;2023-02-23T08:36:08;8.60;99.90
28677;DHT22;15858;48.338;11.078;2023-02-23T08:38:35;8.60;99.90
28677;DHT22;15858;48.338;11.078;2023-02-23T08:41:03;8.60;99.90
28677;DHT22;15858;48.338;11.078;2023-02-23T08:43:30;8.70;99.90
28677;DHT22;15858;48.338;11.078;2023-02-23T08:45:57;8.70;99.90
28677;DHT22;15858;48.338;11.078;2023-02-23T08:48:24;8.80;99.90
28677;DHT22;15858;48.338;11.078;2023-02-23T08:50:55;8.80;99.90
28677;DHT22;15858;48.338;11.078;2023-02-23T08:53:21;8.80;99.90
28677;DHT22;15858;48.338;11.078;2023-02-23T08:55:48;8.80;99.90
28677;DHT22;15858;48.338;11.078;2023-02-23T08:58:15;8.80;99.90
28677;DHT22;15858;48.338;11.078;2023-02-23T09:00:41;8.90;99.90
28677;DHT22;15858;48.338;11.078;2023-02-23T09:03:08;8.90;99.90
28677;DHT22;15858;48.338;11.078;2023-02-23T09:05:36;8.90;99.90
28677;DHT22;15858;48.338;11.078;2023-02-23T09:08:03;9.00;99.90
28677;DHT22;15858;48.338;11.078;2023-02-23T09:10:29;9.00;99.90
28677;DHT22;15858;48.338;11.078;2023-02-23T09:12:56;9.10;99.90
28677;DHT22;15858;48.338;11.078;2023-02-23T09:15:22;9.10;99.90
28677;DHT22;15858;48.338;11.078;2023-02-23T09:17:49;9.20;99.90
28677;DHT22;15858;48.338;11.078;2023-02-23T09:20:16;9.20;99.90
28677;DHT22;15858;48.338;11.078;2023-02-23T09:22:43;9.20;99.90
28677;DHT22;15858;48.338;11.078;2023-02-23T09:25:10;9.20;99.90
28677;DHT22;15858;48.338;11.078;2023-02-23T09:27:37;9.20;99.90
28677;DHT22;15858;48.338;11.078;2023-02-23T09:30:04;9.30;99.90
28677;DHT22;15858;48.338;11.078;2023-02-23T09:32:30;9.30;99.90
28677;DHT22;15858;48.338;11.078;2023-02-23T09:34:57;9.40;99.90
28677;DHT22;15858;48.338;11.078;2023-02-23T09:37:24;9.40;99.90
28677;DHT22;15858;48.338;11.078;2023-02-23T09:39:50;9.40;99.90
28677;DHT22;15858;48.338;11.078;2023-02-23T09:42:36;9.40;99.90
28677;DHT22;15858;48.338;11.078;2023-02-23T09:48:04;9.50;99.90
28677;DHT22;15858;48.338;11.078;2023-02-23T09:50:33;9.50;99.90
28677;DHT22;15858;48.338;11.078;2023-02-23T09:55:59;9.70;99.90
28677;DHT22;15858;48.338;11.078;2023-02-23T09:58:31;9.60;99.90
28677;DHT22;15858;48.338;11.078;2023-02-23T10:01:10;9.70;99.90
28677;DHT22;15858;48.338;11.078;2023-02-23T10:10:02;9.80;99.90
28677;DHT22;15858;48.338;11.078;2023-02-23T10:15:43;10.00;99.90
28677;DHT22;15858;48.338;11.078;2023-02-23T10:18:23;10.00;99.90
28677;DHT22;15858;48.338;11.078;2023-02-23T10:23:58;10.10;99.90
28677;DHT22;15858;48.338;11.078;2023-02-23T10:26:33;10.10;99.90
28677;DHT22;15858;48.338;11.078;2023-02-23T10:31:57;10.20;99.90
28677;DHT22;15858;48.338;11.078;2023-02-23T10:34:26;10.20;99.90
28677;DHT22;15858;48.338;11.078;2023-02-23T10:37:01;10.20;99.90
28677;DHT22;15858;48.338;11.078;2023-02-23T10:39:29;10.20;99.90
28677;DHT22;15858;48.338;11.078;2023-02-23T10:42:02;10.20;99.90
28677;DHT22;15858;48.338;11.078;2023-02-23T10:44:30;10.20;99.90
28677;DHT22;15858;48.338;11.078;2023-02-23T10:47:10;10.20;99.90
28677;DHT22;15858;48.338;11.078;2023-02-23T10:49:41;10.20;99.90
28677;DHT22;15858;48.338;11.078;2023-02-23T10:52:16;10.20;99.90
28677;DHT22;15858;48.338;11.078;2023-02-23T10:54:45;10.10;99.90
28677;DHT22;15858;48.338;11.078;2023-02-23T10:59:59;10.30;99.90
28677;DHT22;15858;48.338;11.078;2023-02-23T11:02:28;10.20;99.90
28677;DHT22;15858;48.338;11.078;2023-02-23T11:04:57;10.30;99.90
28677;DHT22;15858;48.338;11.078;2023-02-23T11:07:26;10.20;99.90
28677;DHT22;15858;48.338;11.078;2023-02-23T11:09:53;10.20;99.90
28677;DHT22;15858;48.338;11.078;2023-02-23T11:12:39;10.20;99.90
28677;DHT22;15858;48.338;11.078;2023-02-23T11:15:32;10.20;99.90
28677;DHT22;15858;48.338;11.078;2023-02-23T11:18:23;10.20;99.90
28677;DHT22;15858;48.338;11.078;2023-02-23T11:20:52;10.10;99.90
28677;DHT22;15858;48.338;11.078;2023-02-23T11:23:24;10.20;99.90
28677;DHT22;15858;48.338;11.078;2023-02-23T11:25:52;10.20;99.90
28677;DHT22;15858;48.338;11.078;2023-02-23T11:28:32;10.20;99.90
28677;DHT22;15858;48.338;11.078;2023-02-23T11:31:26;10.30;99.90
28677;DHT22;15858;48.338;11.078;2023-02-23T11:33:49;10.30;99.90
28677;DHT22;15858;48.338;11.078;2023-02-23T11:39:06;10.50;99.90
28677;DHT22;15858;48.338;11.078;2023-02-23T11:41:33;10.60;99.90
28677;DHT22;15858;48.338;11.078;2023-02-23T11:44:01;10.70;99.90
28677;DHT22;15858;48.338;11.078;2023-02-23T11:46:35;10.80;99.90
28677;DHT22;15858;48.338;11.078;2023-02-23T11:49:14;10.80;99.90
28677;DHT22;15858;48.338;11.078;2023-02-23T11:51:47;10.80;99.90
28677;DHT22;15858;48.338;11.078;2023-02-23T11:54:27;10.80;99.90
28677;DHT22;15858;48.338;11.078;2023-02-23T11:56:55;10.80;99.90
28677;DHT22;15858;48.338;11.078;2023-02-23T11:59:40;10.80;99.90
28677;DHT22;15858;48.338;11.078;2023-02-23T12:02:24;10.90;99.90
28677;DHT22;15858;48.338;11.078;2023-02-23T12:05:08;10.80;99.90
28677;DHT22;15858;48.338;11.078;2023-02-23T12:08:06;10.80;99.90
28677;DHT22;15858;48.338;11.078;2023-02-23T12:10:42;10.90;99.90
28677;DHT22;15858;48.338;11.078;2023-02-23T12:13:34;11.00;99.90
28677;DHT22;15858;48.338;11.078;2023-02-23T12:18:55;11.20;99.90
28677;DHT22;15858;48.338;11.078;2023-02-23T12:21:39;11.10;99.90
28677;DHT22;15858;48.338;11.078;2023-02-23T12:26:42;11.30;99.90
28677;DHT22;15858;48.338;11.078;2023-02-23T12:32:28;11.40;99.90
28677;DHT22;15858;48.338;11.078;2023-02-23T12:35:01;11.50;99.90
28677;DHT22;15858;48.338;11.078;2023-02-23T12:37:47;11.50;99.90
28677;DHT22;15858;48.338;11.078;2023-02-23T12:40:16;11.60;99.90
28677;DHT22;15858;48.338;11.078;2023-02-23T12:42:55;11.50;99.90
28677;DHT22;15858;48.338;11.078;2023-02-23T12:45:32;11.50;99.90
28677;DHT22;15858;48.338;11.078;2023-02-23T12:50:56;11.40;99.90
28677;DHT22;15858;48.338;11.078;2023-02-23T12:59:17;11.70;99.90
28677;DHT22;15858;48.338;11.078;2023-02-23T13:01:56;11.70;99.90
28677;DHT22;15858;48.338;11.078;2023-02-23T13:04:35;11.70;99.90
28677;DHT22;15858;48.338;11.078;2023-02-23T13:12:47;11.60;99.90
28677;DHT22;15858;48.338;11.078;2023-02-23T13:15:34;11.60;99.90
28677;DHT22;15858;48.338;11.078;2023-02-23T13:18:11;11.60;99.90
28677;DHT22;15858;48.338;11.078;2023-02-23T13:20:44;11.50;99.90
28677;DHT22;15858;48.338;11.078;2023-02-23T13:23:24;11.60;99.90
28677;DHT22;15858;48.338;11.078;2023-02-23T13:28:51;11.80;99.90
28677;DHT22;15858;48.338;11.078;2023-02-23T13:33:51;11.90;99.90
28677;DHT22;15858;48.338;11.078;2023-02-23T13:36:19;11.90;99.90
28677;DHT22;15858;48.338;11.078;2023-02-23T13:41:31;12.00;99.90
28677;DHT22;15858;48.338;11.078;2023-02-23T13:47:25;12.00;99.90
28677;DHT22;15858;48.338;11.078;2023-02-23T13:49:57;12.10;99.90
28677;DHT22;15858;48.338;11.078;2023-02-23T13:52:42;12.00;99.90
28677;DHT22;15858;48.338;11.078;2023-02-23T13:58:28;12.00;99.90
28677;DHT22;15858;48.338;11.078;2023-02-23T14:01:10;12.20;99.90
28677;DHT22;15858;48.338;11.078;2023-02-23T14:03:46;12.20;99.90
28677;DHT22;15858;48.338;11.078;2023-02-23T14:06:14;12.00;99.90
28677;DHT22;15858;48.338;11.078;2023-02-23T14:08:44;12.00;99.90
28677;DHT22;15858;48.338;11.078;2023-02-23T14:11:45;12.00;99.90
28677;DHT22;15858;48.338;11.078;2023-02-23T14:20:13;12.00;99.90
28677;DHT22;15858;48.338;11.078;2023-02-23T14:23:14;12.00;99.90
28677;DHT22;15858;48.338;11.078;2023-02-23T14:25:46;12.10;99.90
28677;DHT22;15858;48.338;11.078;2023-02-23T14:28:34;12.10;99.90
28677;DHT22;15858;48.338;11.078;2023-02-23T14:44:35;11.90;99.90
28677;DHT22;15858;48.338;11.078;2023-02-23T14:47:12;11.90;99.90
28677;DHT22;15858;48.338;11.078;2023-02-23T14:49:45;12.00;99.90
28677;DHT22;15858;48.338;11.078;2023-02-23T14:52:29;12.00;99.90
28677;DHT22;15858;48.338;11.078;2023-02-23T14:55:28;12.00;99.90
28677;DHT22;15858;48.338;11.078;2023-02-23T14:57:56;12.00;99.90
28677;DHT22;15858;48.338;11.078;2023-02-23T15:00:28;12.00;99.90
28677;DHT22;15858;48.338;11.078;2023-02-23T15:03:06;12.00;99.90
28677;DHT22;15858;48.338;11.078;2023-02-23T15:05:40;12.00;99.90
28677;DHT22;15858;48.338;11.078;2023-02-23T15:08:11;12.00;99.90
28677;DHT22;15858;48.338;11.078;2023-02-23T15:10:41;12.00;99.90
28677;DHT22;15858;48.338;11.078;2023-02-23T15:13:11;12.10;99.90
28677;DHT22;15858;48.338;11.078;2023-02-23T15:15:41;12.10;99.90
28677;DHT22;15858;48.338;11.078;2023-02-23T15:18:16;12.00;99.90
28677;DHT22;15858;48.338;11.078;2023-02-23T15:20:44;12.00;99.90
28677;DHT22;15858;48.338;11.078;2023-02-23T15:23:16;12.00;99.90
28677;DHT22;15858;48.338;11.078;2023-02-23T15:25:44;12.00;99.90
28677;DHT22;15858;48.338;11.078;2023-02-23T15:30:47;12.10;99.90
28677;DHT22;15858;48.338;11.078;2023-02-23T15:33:17;12.10;99.90
28677;DHT22;15858;48.338;11.078;2023-02-23T15:38:34;12.20;99.90
28677;DHT22;15858;48.338;11.078;2023-02-23T15:41:29;12.30;99.90
28677;DHT22;15858;48.338;11.078;2023-02-23T15:46:32;12.20;99.90
28677;DHT22;15858;48.338;11.078;2023-02-23T15:49:00;12.20;99.90
28677;DHT22;15858;48.338;11.078;2023-02-23T15:51:42;12.00;99.90
28677;DHT22;15858;48.338;11.078;2023-02-23T15:54:21;12.00;99.90
28677;DHT22;15858;48.338;11.078;2023-02-23T15:56:54;11.90;99.90
28677;DHT22;15858;48.338;11.078;2023-02-23T15:59:26;11.80;99.90
28677;DHT22;15858;48.338;11.078;2023-02-23T16:01:53;11.80;99.90
28677;DHT22;15858;48.338;11.078;2023-02-23T16:04:32;11.70;99.90
28677;DHT22;15858;48.338;11.078;2023-02-23T16:10:21;11.50;99.90
28677;DHT22;15858;48.338;11.078;2023-02-23T16:12:50;11.50;99.90
28677;DHT22;15858;48.338;11.078;2023-02-23T16:15:26;11.40;99.90
28677;DHT22;15858;48.338;11.078;2023-02-23T16:20:24;11.20;99.90
28677;DHT22;15858;48.338;11.078;2023-02-23T16:22:53;11.20;99.90
28677;DHT22;15858;48.338;11.078;2023-02-23T16:25:21;11.10;99.90
28677;DHT22;15858;48.338;11.078;2023-02-23T16:28:00;11.00;99.90
28677;DHT22;15858;48.338;11.078;2023-02-23T16:33:23;10.80;99.90
28677;DHT22;15858;48.338;11.078;2023-02-23T16:36:11;10.80;99.90
28677;DHT22;15858;48.338;11.078;2023-02-23T16:38:58;10.70;99.90
28677;DHT22;15858;48.338;11.078;2023-02-23T16:41:34;10.50;99.90
28677;DHT22;15858;48.338;11.078;2023-02-23T16:44:05;10.40;99.90
28677;DHT22;15858;48.338;11.078;2023-02-23T16:47:09;10.30;99.90
28677;DHT22;15858;48.338;11.078;2023-02-23T16:49:36;10.30;99.90
28677;DHT22;15858;48.338;11.078;2023-02-23T16:52:11;10.20;99.90
28677;DHT22;15858;48.338;11.078;2023-02-23T16:54:40;10.20;99.90
28677;DHT22;15858;48.338;11.078;2023-02-23T16:57:19;10.10;99.90
28677;DHT22;15858;48.338;11.078;2023-02-23T16:59:47;10.00;99.90
28677;DHT22;15858;48.338;11.078;2023-02-23T17:02:14;9.90;99.90
28677;DHT22;15858;48.338;11.078;2023-02-23T17:04:41;9.90;99.90
28677;DHT22;15858;48.338;11.078;2023-02-23T17:07:08;9.80;99.90
28677;DHT22;15858;48.338;11.078;2023-02-23T17:09:34;9.70;99.90
28677;DHT22;15858;48.338;11.078;2023-02-23T17:12:01;9.60;99.90
28677;DHT22;15858;48.338;11.078;2023-02-23T17:14:28;9.60;99.90
28677;DHT22;15858;48.338;11.078;2023-02-23T17:16:54;9.50;99.90
28677;DHT22;15858;48.338;11.078;2023-02-23T17:19:21;9.50;99.90
28677;DHT22;15858;48.338;11.078;2023-02-23T17:21:51;9.50;99.90
28677;DHT22;15858;48.338;11.078;2023-02-23T17:24:17;9.40;99.90
28677;DHT22;15858;48.338;11.078;2023-02-23T17:26:44;9.30;99.90
28677;DHT22;15858;48.338;11.078;2023-02-23T17:29:10;9.20;99.90
28677;DHT22;15858;48.338;11.078;2023-02-23T17:31:37;9.10;99.90
28677;DHT22;15858;48.338;11.078;2023-02-23T17:34:05;9.10;99.90
28677;DHT22;15858;48.338;11.078;2023-02-23T17:36:31;9.00;99.90
28677;DHT22;15858;48.338;11.078;2023-02-23T17:38:58;8.90;99.90
28677;DHT22;15858;48.338;11.078;2023-02-23T17:41:25;8.90;99.90
28677;DHT22;15858;48.338;11.078;2023-02-23T17:43:51;8.80;99.90
28677;DHT22;15858;48.338;11.078;2023-02-23T17:46:18;8.80;99.90
28677;DHT22;15858;48.338;11.078;2023-02-23T17:48:44;8.80;99.90
28677;DHT22;15858;48.338;11.078;2023-02-23T17:51:12;8.70;99.90
28677;DHT22;15858;48.338;11.078;2023-02-23T17:53:39;8.70;99.90
28677;DHT22;15858;48.338;11.078;2023-02-23T17:56:06;8.70;99.90
28677;DHT22;15858;48.338;11.078;2023-02-23T17:58:33;8.70;99.90